Time;durP1;ratioP1;P1;durP2;ratioP2;P2;SDS_P1;SDS_P2;PMS_P1;PMS_P2;Temp;Humidity;BMP_temperature;BMP_pressure;BME280_temperature;BME280_humidity;BME280_pressure;Samples;Min_cycle;Max_cycle;Signal;HPM_P1;HPM_P2
2021/10/24 00:02:05;;;;;;;10.40;4.60;;;;;;;7.06;60.69;100053.64;116460;1197;138041;-64
2021/10/24 00:04:33;;;;;;;10.30;4.20;;;;;;;7.04;60.85;100050.74;116700;1201;22316;-64
2021/10/24 00:07:02;;;;;;;11.70;4.30;;;;;;;7.04;60.89;100053.33;116531;1200;137197;-64
2021/10/24 00:09:30;;;;;;;10.20;4.30;;;;;;;7.06;60.98;100055.19;116629;1200;22334;-64
2021/10/24 00:12:01;;;;;;;10.30;4.30;;;;;;;7.05;61.12;100053.95;116499;1200;138231;-63
2021/10/24 00:14:29;;;;;;;8.70;4.30;;;;;;;7.05;61.21;100048.52;116515;1201;22256;-63
2021/10/24 00:16:57;;;;;;;8.60;4.30;;;;;;;7.05;61.32;100049.78;116650;1201;22366;-64
2021/10/24 00:19:26;;;;;;;8.30;4.30;;;;;;;7.05;61.23;100048.77;116525;1200;136915;-64
2021/10/24 00:21:56;;;;;;;11.40;5.10;;;;;;;7.06;61.34;100048.02;116691;1201;23156;-64
2021/10/24 00:24:25;;;;;;;13.00;4.90;;;;;;;7.07;61.37;100047.33;116544;1193;138866;-63
2021/10/24 00:26:56;;;;;;;12.20;5.00;;;;;;;7.06;61.49;100042.04;116625;1200;23100;-63
2021/10/24 00:29:24;;;;;;;10.30;4.80;;;;;;;7.07;61.63;100043.27;116575;1200;22303;-63
2021/10/24 00:31:52;;;;;;;13.10;5.30;;;;;;;7.06;61.94;100044.13;116508;1201;137397;-64
2021/10/24 00:34:21;;;;;;;14.80;4.80;;;;;;;7.06;62.01;100041.04;116591;1193;22274;-64
2021/10/24 00:36:48;;;;;;;9.40;4.80;;;;;;;7.08;62.13;100042.80;116483;1201;137643;-63
2021/10/24 00:39:16;;;;;;;11.50;5.50;;;;;;;7.08;62.16;100043.23;116523;1201;22813;-63
2021/10/24 00:41:45;;;;;;;10.00;5.10;;;;;;;7.07;62.29;100043.23;116603;1200;22316;-63
2021/10/24 00:44:39;;;;;;;9.40;4.80;;;;;;;7.07;62.21;100042.30;116514;1200;139165;-63
2021/10/24 00:47:07;;;;;;;10.40;5.00;;;;;;;7.08;62.29;100046.67;116572;1201;22455;-63
2021/10/24 00:49:36;;;;;;;11.50;5.30;;;;;;;7.09;62.30;100048.96;116493;1200;137763;-63
2021/10/24 00:52:05;;;;;;;16.50;5.10;;;;;;;7.09;62.59;100051.84;116632;1200;22296;-63
2021/10/24 00:54:33;;;;;;;10.70;5.60;;;;;;;7.09;62.66;100052.22;116462;1200;139222;-63
2021/10/24 00:57:02;;;;;;;10.00;4.90;;;;;;;7.07;62.86;100053.79;116623;1199;22357;-62
2021/10/24 00:59:30;;;;;;;12.20;4.70;;;;;;;7.05;62.82;100057.82;116642;1200;22319;-64
2021/10/24 01:01:58;;;;;;;11.00;4.40;;;;;;;7.02;62.88;100053.81;116435;1200;138382;-64
2021/10/24 01:04:27;;;;;;;6.90;4.10;;;;;;;7.03;62.90;100060.01;116614;1200;22370;-64
2021/10/24 01:07:03;;;;;;;9.30;4.20;;;;;;;7.03;63.14;100064.67;116525;1198;137974;-64
2021/10/24 01:09:32;;;;;;;12.60;5.40;;;;;;;7.04;63.20;100074.04;116561;1200;22361;-64
2021/10/24 01:12:00;;;;;;;11.10;4.80;;;;;;;7.06;63.38;100074.39;116529;1201;137912;-64
2021/10/24 01:14:28;;;;;;;10.90;4.60;;;;;;;7.09;63.51;100073.56;116568;1200;22367;-64
2021/10/24 01:16:56;;;;;;;9.80;3.90;;;;;;;7.10;63.53;100076.31;116627;1200;24413;-63
2021/10/24 01:19:24;;;;;;;8.60;4.10;;;;;;;7.11;63.40;100078.63;116518;1199;138469;-64
2021/10/24 01:21:53;;;;;;;10.60;4.60;;;;;;;7.11;63.62;100074.73;116628;1199;22296;-64
2021/10/24 01:24:21;;;;;;;7.20;4.10;;;;;;;7.13;63.48;100076.20;116536;1200;138905;-64
2021/10/24 01:26:54;;;;;;;13.50;5.20;;;;;;;7.12;63.61;100084.14;116593;1200;22820;-65
2021/10/24 01:29:23;;;;;;;13.20;5.40;;;;;;;7.11;63.50;100084.59;116653;1200;22386;-65
2021/10/24 01:31:52;;;;;;;10.70;4.90;;;;;;;7.11;63.41;100090.56;116533;1199;137694;-65
2021/10/24 01:34:21;;;;;;;8.50;4.60;;;;;;;7.11;63.58;100091.64;116436;1201;22803;-65
2021/10/24 01:36:49;;;;;;;10.00;4.90;;;;;;;7.10;63.61;100097.03;116540;1200;138468;-65
2021/10/24 01:39:18;;;;;;;9.40;4.70;;;;;;;7.09;63.76;100096.78;116638;1199;22308;-65
2021/10/24 01:41:46;;;;;;;8.20;4.60;;;;;;;7.09;63.99;100093.45;116627;1193;22198;-65
2021/10/24 01:44:15;;;;;;;8.20;4.50;;;;;;;7.08;63.82;100097.92;116541;1199;139581;-65
2021/10/24 01:46:43;;;;;;;13.70;4.90;;;;;;;7.04;64.11;100092.13;116603;1200;22326;-65
2021/10/24 01:49:12;;;;;;;10.40;3.90;;;;;;;7.03;64.34;100094.19;116525;1199;137648;-65
2021/10/24 01:51:42;;;;;;;9.80;4.50;;;;;;;7.00;64.21;100095.03;116566;1200;23451;-65
2021/10/24 01:54:11;;;;;;;21.70;5.50;;;;;;;7.00;64.50;100095.49;116487;1199;137583;-66
2021/10/24 01:56:39;;;;;;;9.10;4.10;;;;;;;6.99;64.31;100098.61;116558;1201;22254;-65
2021/10/24 01:59:07;;;;;;;13.80;4.40;;;;;;;7.00;64.47;100099.66;116583;1199;22452;-65
2021/10/24 02:01:53;;;;;;;9.10;4.10;;;;;;;7.01;64.71;100104.70;116519;1199;137659;-65
2021/10/24 02:04:40;;;;;;;10.70;4.80;;;;;;;7.02;64.58;100104.35;116663;1199;22481;-65
2021/10/24 02:07:23;;;;;;;7.50;4.10;;;;;;;7.02;64.67;100105.23;116379;1201;137799;-65
2021/10/24 02:09:51;;;;;;;13.70;8.40;;;;;;;7.00;64.53;100105.20;116589;1193;22256;-64
2021/10/24 02:12:21;;;;;;;12.00;5.00;;;;;;;7.01;64.71;100111.20;116528;1195;138497;-64
2021/10/24 02:14:50;;;;;;;7.20;3.80;;;;;;;7.02;64.68;100114.36;116613;1200;22336;-64
2021/10/24 02:17:18;;;;;;;11.00;4.60;;;;;;;7.02;64.66;100115.32;116603;1201;22295;-64
2021/10/24 02:19:48;;;;;;;8.90;4.40;;;;;;;7.02;64.76;100113.02;116537;1199;137634;-64
2021/10/24 02:22:16;;;;;;;10.90;4.30;;;;;;;7.01;64.88;100116.08;116593;1197;22309;-64
2021/10/24 02:24:44;;;;;;;10.30;4.20;;;;;;;7.00;64.89;100121.58;116551;1201;138909;-64
2021/10/24 02:27:13;;;;;;;8.90;3.80;;;;;;;7.00;64.87;100123.84;116559;1200;23162;-65
2021/10/24 02:29:41;;;;;;;10.50;4.60;;;;;;;6.99;64.85;100125.77;116572;1197;22264;-65
2021/10/24 02:32:09;;;;;;;11.60;4.40;;;;;;;6.97;65.01;100129.43;116464;1200;137629;-65
2021/10/24 02:35:00;;;;;;;7.40;3.90;;;;;;;6.96;65.04;100132.90;116551;1200;22361;-65
2021/10/24 02:37:36;;;;;;;9.80;4.20;;;;;;;6.94;65.19;100138.98;116518;1201;139227;-64
2021/10/24 02:40:08;;;;;;;9.10;3.90;;;;;;;6.90;65.29;100138.42;116623;1201;22248;-64
2021/10/24 02:42:37;;;;;;;11.90;5.00;;;;;;;6.89;65.35;100138.63;116377;1201;138846;-64
2021/10/24 02:45:06;;;;;;;12.50;5.50;;;;;;;6.86;65.34;100136.31;116652;1200;22230;-64
2021/10/24 02:47:34;;;;;;;11.90;5.20;;;;;;;6.85;65.53;100137.69;116630;1201;22222;-64
2021/10/24 02:50:04;;;;;;;10.60;5.00;;;;;;;6.83;65.58;100137.74;116502;1200;137612;-64
2021/10/24 02:52:32;;;;;;;12.20;5.70;;;;;;;6.81;65.71;100141.92;116624;1200;22878;-63
2021/10/24 02:55:00;;;;;;;20.30;10.40;;;;;;;6.80;65.50;100139.59;116448;1200;137925;-62
2021/10/24 02:57:29;;;;;;;17.20;7.80;;;;;;;6.79;65.73;100144.39;116590;1200;22401;-62
2021/10/24 02:59:58;;;;;;;10.40;5.90;;;;;;;6.79;65.76;100141.52;116526;1200;138060;-62
2021/10/24 03:02:29;;;;;;;9.90;5.40;;;;;;;6.77;65.81;100144.30;116623;1200;22230;-62
2021/10/24 03:04:58;;;;;;;10.10;6.50;;;;;;;6.74;65.84;100145.82;116707;1200;23166;-62
2021/10/24 03:07:26;;;;;;;13.20;6.10;;;;;;;6.70;66.15;100144.66;116421;1201;137653;-63
2021/10/24 03:09:54;;;;;;;12.70;5.00;;;;;;;6.70;66.24;100142.95;116594;1197;22859;-63
2021/10/24 03:12:22;;;;;;;13.50;5.20;;;;;;;6.70;66.00;100144.49;116516;1200;137883;-62
2021/10/24 03:15:08;;;;;;;16.00;5.80;;;;;;;6.71;66.12;100151.29;116579;1201;22260;-63
2021/10/24 03:17:36;;;;;;;9.90;6.10;;;;;;;6.70;66.17;100150.70;116645;1200;23202;-63
2021/10/24 03:20:05;;;;;;;12.80;6.30;;;;;;;6.68;66.29;100151.88;116510;1201;137843;-63
2021/10/24 03:22:34;;;;;;;13.20;5.40;;;;;;;6.69;66.15;100152.63;116610;1200;22311;-63
2021/10/24 03:25:04;;;;;;;12.50;5.20;;;;;;;6.68;66.11;100152.09;116502;1201;138373;-63
2021/10/24 03:27:33;;;;;;;10.40;4.90;;;;;;;6.66;66.53;100155.34;116595;1200;22324;-63
2021/10/24 03:30:01;;;;;;;9.70;5.50;;;;;;;6.66;66.49;100155.55;116514;1197;140571;-63
2021/10/24 03:32:30;;;;;;;11.60;5.10;;;;;;;6.65;66.33;100158.34;116650;1200;23545;-63
2021/10/24 03:34:58;;;;;;;12.10;4.90;;;;;;;6.65;66.30;100159.72;116565;1201;23070;-64
2021/10/24 03:37:27;;;;;;;11.10;5.10;;;;;;;6.62;66.23;100162.20;116565;1201;138570;-64
2021/10/24 03:39:55;;;;;;;13.10;5.90;;;;;;;6.61;66.37;100164.00;116571;1199;22188;-64
2021/10/24 03:42:24;;;;;;;9.20;5.10;;;;;;;6.61;66.73;100165.05;116479;1201;139172;-64
2021/10/24 03:44:53;;;;;;;12.50;4.80;;;;;;;6.58;66.47;100168.30;116618;1200;22242;-64
2021/10/24 03:47:22;;;;;;;6.80;4.20;;;;;;;6.57;66.63;100163.23;116609;1201;22324;-63
2021/10/24 03:49:50;;;;;;;11.80;4.20;;;;;;;6.56;66.62;100168.82;116517;1200;138076;-64
2021/10/24 03:52:19;;;;;;;11.30;5.10;;;;;;;6.56;66.92;100169.15;116638;1200;22328;-63
2021/10/24 03:54:47;;;;;;;10.70;5.50;;;;;;;6.56;66.69;100169.70;116495;1200;137968;-63
2021/10/24 03:57:15;;;;;;;13.10;5.60;;;;;;;6.55;66.99;100172.94;116633;1200;22317;-63
2021/10/24 03:59:43;;;;;;;9.80;4.80;;;;;;;6.53;67.07;100175.54;116587;1200;22257;-63
2021/10/24 04:02:11;;;;;;;9.80;5.10;;;;;;;6.52;67.18;100178.33;116458;1201;138406;-63
2021/10/24 04:04:41;;;;;;;10.00;5.60;;;;;;;6.51;67.15;100176.13;116629;1200;23126;-63
2021/10/24 04:07:12;;;;;;;15.20;7.80;;;;;;;6.50;66.99;100174.72;116467;1197;138078;-63
2021/10/24 04:09:41;;;;;;;12.10;7.10;;;;;;;6.50;67.08;100178.46;116593;1201;22363;-63
2021/10/24 04:12:11;;;;;;;14.00;6.70;;;;;;;6.48;67.16;100177.08;116530;1193;137856;-63
2021/10/24 04:14:41;;;;;;;16.50;7.10;;;;;;;6.48;67.43;100179.70;116644;1200;22323;-63
2021/10/24 04:17:10;;;;;;;16.10;7.60;;;;;;;6.45;67.49;100178.66;116708;1200;22953;-63
2021/10/24 04:19:41;;;;;;;15.90;7.60;;;;;;;6.43;67.53;100181.84;116465;1193;137803;-63
2021/10/24 04:22:09;;;;;;;18.70;7.60;;;;;;;6.41;67.61;100184.63;116593;1199;22295;-63
2021/10/24 04:24:38;;;;;;;13.90;6.60;;;;;;;6.38;67.82;100186.64;116462;1201;138077;-62
2021/10/24 04:27:06;;;;;;;12.40;5.40;;;;;;;6.36;67.65;100187.46;116625;1200;22241;-62
2021/10/24 04:29:34;;;;;;;16.20;7.20;;;;;;;6.36;67.86;100187.84;116637;1200;22325;-62
2021/10/24 04:32:03;;;;;;;17.60;7.10;;;;;;;6.34;67.94;100194.36;116505;1201;137921;-65
2021/10/24 04:34:31;;;;;;;19.40;8.30;;;;;;;6.31;68.01;100193.71;116582;1200;22329;-64
2021/10/24 04:36:59;;;;;;;14.50;6.60;;;;;;;6.32;67.97;100192.55;116434;1201;139637;-65
2021/10/24 04:39:28;;;;;;;16.30;6.80;;;;;;;6.33;68.08;100194.04;116603;1200;24288;-64
2021/10/24 04:41:56;;;;;;;10.20;5.60;;;;;;;6.33;68.28;100197.24;116453;1200;138289;-64
2021/10/24 04:44:24;;;;;;;19.40;6.30;;;;;;;6.34;68.19;100202.68;116475;1201;22338;-64
2021/10/24 04:46:52;;;;;;;14.70;6.00;;;;;;;6.35;68.07;100206.59;116662;1193;22402;-65
2021/10/24 04:49:21;;;;;;;16.10;7.10;;;;;;;6.35;68.26;100211.46;116501;1200;140553;-65
2021/10/24 04:51:49;;;;;;;12.50;6.70;;;;;;;6.34;68.39;100213.30;116517;1201;22392;-65
2021/10/24 04:54:19;;;;;;;14.50;6.90;;;;;;;6.33;68.13;100210.94;116594;1200;138404;-64
2021/10/24 04:56:48;;;;;;;12.20;6.00;;;;;;;6.32;68.30;100217.94;116626;1200;23408;-66
2021/10/24 04:59:16;;;;;;;12.10;6.00;;;;;;;6.33;68.41;100216.77;116723;1200;23103;-67
2021/10/24 05:01:47;;;;;;;11.90;6.10;;;;;;;6.33;68.29;100220.52;116474;1200;138328;-66
2021/10/24 05:04:16;;;;;;;16.40;6.20;;;;;;;6.34;68.68;100217.52;116584;1201;22274;-66
2021/10/24 05:06:44;;;;;;;16.00;5.80;;;;;;;6.36;68.59;100224.11;116573;1200;137909;-66
2021/10/24 05:09:12;;;;;;;11.80;6.00;;;;;;;6.38;68.34;100225.64;116656;1200;23592;-66
2021/10/24 05:11:52;;;;;;;10.10;5.00;;;;;;;6.41;68.63;100229.14;116598;1193;137875;-66
2021/10/24 05:14:20;;;;;;;13.50;5.40;;;;;;;6.41;68.62;100233.18;116492;1202;23034;-67
2021/10/24 05:16:49;;;;;;;10.40;5.10;;;;;;;6.41;68.53;100236.39;116652;1200;22338;-67
2021/10/24 05:19:17;;;;;;;13.40;5.40;;;;;;;6.44;68.70;100240.17;116560;1200;138551;-66
2021/10/24 05:21:45;;;;;;;10.80;5.50;;;;;;;6.45;68.38;100243.21;116504;1201;22348;-66
2021/10/24 05:24:13;;;;;;;15.20;6.10;;;;;;;6.46;68.58;100250.83;116372;1195;138025;-66
2021/10/24 05:26:43;;;;;;;13.60;5.40;;;;;;;6.45;68.55;100255.11;116466;1202;22373;-66
2021/10/24 05:29:11;;;;;;;9.90;4.90;;;;;;;6.44;68.42;100256.88;116502;1201;22267;-66
2021/10/24 05:31:39;;;;;;;13.90;5.80;;;;;;;6.44;68.42;100261.58;116530;1201;138151;-66
2021/10/24 05:34:13;;;;;;;12.40;5.10;;;;;;;6.43;68.67;100270.73;116512;1201;22923;-66
2021/10/24 05:36:48;;;;;;;13.70;5.60;;;;;;;6.43;68.64;100275.11;116491;1193;137716;-66
2021/10/24 05:39:16;;;;;;;10.30;5.10;;;;;;;6.45;68.67;100280.45;116569;1201;22424;-66
2021/10/24 05:41:45;;;;;;;13.40;5.20;;;;;;;6.48;68.55;100279.27;116390;1201;23558;-66
2021/10/24 05:44:14;;;;;;;12.60;4.70;;;;;;;6.48;68.44;100283.38;116374;1200;137576;-66
2021/10/24 05:46:42;;;;;;;15.00;6.20;;;;;;;6.48;68.40;100288.44;116549;1201;22697;-66
2021/10/24 05:49:13;;;;;;;15.40;4.90;;;;;;;6.49;68.55;100292.55;116394;1197;138252;-66
2021/10/24 05:51:49;;;;;;;11.60;5.10;;;;;;;6.50;68.39;100298.61;116546;1200;22989;-66
2021/10/24 05:54:19;;;;;;;7.50;4.70;;;;;;;6.48;68.45;100303.88;116564;1200;138445;-67
2021/10/24 05:56:47;;;;;;;10.10;4.90;;;;;;;6.45;68.41;100302.30;116665;1200;22298;-67
2021/10/24 05:59:20;;;;;;;9.80;5.00;;;;;;;6.44;68.66;100306.34;116598;1201;22300;-66
2021/10/24 06:02:10;;;;;;;10.80;6.40;;;;;;;6.46;68.57;100307.75;116449;1200;137614;-68
2021/10/24 06:04:58;;;;;;;12.10;5.50;;;;;;;6.43;68.55;100312.92;116637;1200;22390;-68
2021/10/24 06:07:31;;;;;;;9.50;5.00;;;;;;;6.43;68.60;100318.76;116438;1201;137866;-67
2021/10/24 06:10:22;;;;;;;13.20;5.30;;;;;;;6.46;68.65;100318.91;116568;1200;22993;-66
2021/10/24 06:12:52;;;;;;;9.80;5.00;;;;;;;6.45;68.91;100323.91;116543;1200;138081;-62
2021/10/24 06:15:40;;;;;;;9.00;4.10;;;;;;;6.42;68.91;100326.33;116673;1200;22238;-65
2021/10/24 06:18:09;;;;;;;13.00;4.90;;;;;;;6.40;68.97;100327.58;116412;1201;139637;-65
2021/10/24 06:20:38;;;;;;;12.80;4.70;;;;;;;6.41;69.22;100325.70;116558;1201;22198;-65
2021/10/24 06:23:06;;;;;;;12.00;4.40;;;;;;;6.42;69.03;100330.83;116557;1199;22325;-65
2021/10/24 06:25:35;;;;;;;9.70;4.60;;;;;;;6.44;69.32;100336.48;116469;1200;138782;-65
2021/10/24 06:28:06;;;;;;;10.80;4.20;;;;;;;6.46;69.50;100340.54;116623;1201;22320;-65
2021/10/24 06:30:34;;;;;;;11.60;4.20;;;;;;;6.48;69.22;100336.99;116498;1194;138559;-65
2021/10/24 06:33:08;;;;;;;5.60;3.40;;;;;;;6.52;69.47;100341.84;116561;1201;22320;-65
2021/10/24 06:35:55;;;;;;;10.00;4.40;;;;;;;6.57;69.40;100354.16;116522;1200;138701;-65
2021/10/24 06:38:43;;;;;;;7.40;4.10;;;;;;;6.56;69.23;100354.00;116606;1200;23150;-65
2021/10/24 06:41:27;;;;;;;7.20;3.50;;;;;;;6.56;69.45;100353.91;116571;1201;23088;-65
2021/10/24 06:44:05;;;;;;;7.80;4.20;;;;;;;6.58;69.21;100357.04;116445;1200;138006;-65
2021/10/24 06:47:05;;;;;;;18.80;7.20;;;;;;;6.58;69.21;100356.88;116532;1201;22284;-65
2021/10/24 06:49:56;;;;;;;8.80;4.50;;;;;;;6.59;69.25;100364.33;116243;1201;138886;-65
2021/10/24 06:52:46;;;;;;;12.40;5.40;;;;;;;6.61;69.51;100368.25;116469;1201;22326;-65
2021/10/24 06:55:33;;;;;;;12.10;5.70;;;;;;;6.64;69.77;100372.09;116483;1199;137998;-65
2021/10/24 06:58:19;;;;;;;7.10;3.60;;;;;;;6.62;69.84;100378.48;116617;1201;23123;-66
2021/10/24 07:01:06;;;;;;;6.20;3.50;;;;;;;6.59;69.96;100379.48;116571;1200;137926;-65
2021/10/24 07:03:53;;;;;;;8.80;5.00;;;;;;;6.57;69.96;100388.53;116542;1201;22341;-65
2021/10/24 07:06:30;;;;;;;4.70;2.90;;;;;;;6.50;70.63;100388.33;116486;1200;138201;-66
2021/10/24 07:09:17;;;;;;;4.40;2.10;;;;;;;6.40;71.20;100394.54;116645;1201;22167;-66
2021/10/24 07:12:06;;;;;;;5.00;3.10;;;;;;;6.29;71.56;100399.88;116393;1201;138382;-65
2021/10/24 07:14:52;;;;;;;3.70;2.70;;;;;;;6.20;72.06;100402.50;116596;1198;22337;-65
2021/10/24 07:17:21;;;;;;;4.90;2.90;;;;;;;6.17;71.80;100401.55;116682;1201;22295;-65
2021/10/24 07:19:49;;;;;;;4.90;3.60;;;;;;;6.12;71.61;100396.42;116456;1200;138691;-65
2021/10/24 07:22:18;;;;;;;9.20;5.00;;;;;;;6.07;71.67;100398.90;116644;1201;22438;-65
2021/10/24 07:25:14;;;;;;;7.40;4.50;;;;;;;6.05;71.96;100401.17;116558;1197;137755;-65
2021/10/24 07:27:44;;;;;;;7.40;4.10;;;;;;;6.10;72.24;100400.41;116420;1200;23652;-65
2021/10/24 07:30:13;;;;;;;6.30;3.30;;;;;;;6.16;72.24;100405.80;116511;1200;139712;-65
2021/10/24 07:32:49;;;;;;;9.60;5.00;;;;;;;6.23;72.42;100404.45;116544;1201;22173;-65
2021/10/24 07:35:35;;;;;;;7.70;5.10;;;;;;;6.30;72.39;100404.09;116646;1199;22261;-66
2021/10/24 07:38:04;;;;;;;10.40;5.20;;;;;;;6.34;72.76;100403.67;116479;1200;137706;-66
2021/10/24 07:40:37;;;;;;;12.10;5.80;;;;;;;6.38;72.82;100402.79;116578;1201;22249;-68
2021/10/24 07:43:09;;;;;;;15.80;9.30;;;;;;;6.44;73.01;100405.08;116435;1201;138322;-66
2021/10/24 07:45:38;;;;;;;13.90;9.00;;;;;;;6.51;72.59;100406.86;116588;1200;23349;-66
2021/10/24 07:48:06;;;;;;;14.80;8.90;;;;;;;6.55;72.11;100407.11;116337;1201;138897;-66
2021/10/24 07:50:37;;;;;;;10.80;7.10;;;;;;;6.58;72.31;100407.61;116562;1201;23348;-66
2021/10/24 07:53:05;;;;;;;7.30;4.00;;;;;;;6.66;71.88;100415.00;116694;1201;22339;-66
2021/10/24 07:55:44;;;;;;;8.50;4.90;;;;;;;6.71;71.73;100417.84;116382;1201;137860;-66
2021/10/24 07:58:26;;;;;;;6.90;3.50;;;;;;;6.78;71.43;100417.74;116638;1201;23406;-66
2021/10/24 08:00:54;;;;;;;5.60;3.40;;;;;;;6.80;71.05;100416.35;116480;1200;137740;-65
2021/10/24 08:03:23;;;;;;;7.50;3.10;;;;;;;6.84;70.95;100417.72;116586;1194;22378;-66
2021/10/24 08:05:53;;;;;;;7.60;3.10;;;;;;;6.90;70.57;100418.60;116536;1200;137880;-66
2021/10/24 08:10:07;;;;;;;8.30;3.40;;;;;;;6.95;69.77;100419.70;110755;1209;544879;-68
2021/10/24 08:12:37;;;;;;;5.20;3.60;;;;;;;6.95;69.43;100419.48;112007;1202;136624;-68
2021/10/24 08:15:06;;;;;;;7.00;5.00;;;;;;;6.98;69.17;100426.64;111918;1204;24046;-67
2021/10/24 08:17:35;;;;;;;7.40;3.90;;;;;;;6.99;69.01;100429.19;116214;1204;23196;-66
2021/10/24 08:20:23;;;;;;;8.70;2.80;;;;;;;6.99;67.93;100434.23;115983;1205;136189;-67
2021/10/24 08:22:53;;;;;;;6.20;3.50;;;;;;;6.97;67.65;100434.57;116065;1200;22335;-67
2021/10/24 08:25:21;;;;;;;4.60;2.80;;;;;;;6.94;66.72;100436.06;116008;1198;137615;-67
2021/10/24 08:27:49;;;;;;;4.70;2.70;;;;;;;6.92;66.98;100442.25;116175;1205;22290;-67
2021/10/24 08:30:41;;;;;;;3.70;2.00;;;;;;;6.94;66.28;100441.02;116002;1205;137199;-66
2021/10/24 08:33:24;;;;;;;6.60;2.10;;;;;;;7.00;66.16;100445.53;116040;1205;22336;-67
2021/10/24 08:35:52;;;;;;;4.80;3.00;;;;;;;7.07;65.86;100440.00;116105;1205;22155;-67
2021/10/24 08:38:20;;;;;;;5.20;3.30;;;;;;;7.16;65.57;100443.65;116123;1204;137223;-67
2021/10/24 08:40:48;;;;;;;4.40;2.70;;;;;;;7.26;65.23;100442.23;113174;1205;22592;-66
2021/10/24 08:43:20;;;;;;;5.10;2.70;;;;;;;7.35;64.74;100446.29;115975;1205;137274;-67
2021/10/24 08:45:48;;;;;;;3.90;2.00;;;;;;;7.46;64.52;100447.72;116067;1205;22260;-67
2021/10/24 08:48:17;;;;;;;3.10;1.90;;;;;;;7.55;63.71;100456.22;115975;1205;137501;-66
2021/10/24 08:50:49;;;;;;;3.90;2.00;;;;;;;7.61;62.43;100456.20;116026;1204;22328;-67
2021/10/24 08:53:18;;;;;;;3.90;1.90;;;;;;;7.61;61.57;100458.66;116006;1205;22256;-67
2021/10/24 08:55:47;;;;;;;4.30;1.60;;;;;;;7.57;62.08;100453.67;116116;1204;136609;-67
2021/10/24 08:58:15;;;;;;;3.40;1.70;;;;;;;7.59;62.21;100450.73;116246;1190;23225;-67
2021/10/24 09:00:48;;;;;;;2.80;1.10;;;;;;;7.62;62.13;100451.78;116123;1204;136634;-66
2021/10/24 09:03:17;;;;;;;4.00;1.80;;;;;;;7.66;61.92;100451.58;116089;1205;23138;-67
2021/10/24 09:05:50;;;;;;;1.90;1.60;;;;;;;7.72;61.79;100450.71;116098;1204;22303;-66
2021/10/24 09:08:20;;;;;;;5.90;1.80;;;;;;;7.78;61.48;100457.03;115909;1205;136475;-67
2021/10/24 09:10:49;;;;;;;2.20;1.30;;;;;;;7.81;61.09;100458.47;116196;1205;22288;-65
2021/10/24 09:13:20;;;;;;;4.70;1.70;;;;;;;7.81;60.54;100466.94;115982;1205;136862;-65
2021/10/24 09:15:52;;;;;;;3.00;1.40;;;;;;;7.77;60.34;100478.80;116021;1205;23140;-65
2021/10/24 09:18:43;;;;;;;5.80;0.90;;;;;;;7.62;61.70;100499.04;116004;1205;136615;-64
2021/10/24 09:21:22;;;;;;;2.90;1.00;;;;;;;7.16;64.57;100500.30;116199;1205;22390;-64
2021/10/24 09:24:03;;;;;;;2.80;0.90;;;;;;;6.73;66.76;100509.03;116356;1203;23073;-64
2021/10/24 09:26:31;;;;;;;1.60;0.80;;;;;;;6.34;67.63;100512.09;116154;1190;137051;-64
2021/10/24 09:29:00;;;;;;;1.10;0.90;;;;;;;6.08;68.92;100510.09;116238;1203;22361;-65
2021/10/24 09:31:32;;;;;;;2.50;1.50;;;;;;;5.91;69.70;100509.33;116130;1203;137548;-65
2021/10/24 09:34:19;;;;;;;2.20;1.30;;;;;;;5.86;70.34;100506.67;116283;1204;22259;-65
2021/10/24 09:36:54;;;;;;;13.60;5.20;;;;;;;5.84;71.26;100507.79;116131;1203;137322;-65
2021/10/24 09:39:43;;;;;;;20.30;10.50;;;;;;;5.90;71.57;100511.58;115224;1203;22450;-66
2021/10/24 09:42:23;;;;;;;4.90;3.20;;;;;;;5.95;71.29;100510.59;111938;1197;138306;-65
2021/10/24 09:45:07;;;;;;;6.00;3.20;;;;;;;5.99;71.22;100515.52;111852;1184;24607;-65
2021/10/24 09:47:37;;;;;;;7.10;4.30;;;;;;;6.03;71.12;100512.00;111951;1204;22456;-65
2021/10/24 09:50:06;;;;;;;2.70;2.00;;;;;;;6.05;71.16;100515.29;116209;1203;138343;-66
2021/10/24 09:52:36;;;;;;;6.30;3.00;;;;;;;6.09;71.20;100518.58;116356;1203;23391;-67
2021/10/24 09:55:15;;;;;;;5.80;3.10;;;;;;;6.10;71.41;100516.50;116135;1204;139121;-67
2021/10/24 09:57:44;;;;;;;6.50;2.60;;;;;;;6.15;71.72;100507.40;116256;1204;22991;-66
2021/10/24 10:00:13;;;;;;;3.40;2.30;;;;;;;6.21;71.52;100509.11;116107;1203;138091;-66
2021/10/24 10:02:41;;;;;;;2.20;1.60;;;;;;;6.24;71.34;100508.29;116256;1200;22389;-67
2021/10/24 10:05:09;;;;;;;3.30;1.50;;;;;;;6.30;71.64;100514.17;116346;1203;22398;-67
2021/10/24 10:07:37;;;;;;;4.50;2.30;;;;;;;6.38;71.37;100510.73;116226;1203;137140;-67
2021/10/24 10:10:05;;;;;;;5.90;2.30;;;;;;;6.48;71.82;100509.40;116395;1203;22315;-66
2021/10/24 10:12:35;;;;;;;7.70;3.20;;;;;;;6.56;71.57;100512.61;116207;1203;138913;-66
2021/10/24 10:15:23;;;;;;;7.20;3.70;;;;;;;6.63;71.40;100508.16;116270;1203;22237;-66
2021/10/24 10:17:56;;;;;;;5.60;2.60;;;;;;;6.72;71.08;100507.83;116222;1203;22203;-66
2021/10/24 10:20:27;;;;;;;5.20;2.60;;;;;;;6.82;70.64;100513.77;116537;1201;138622;-67
2021/10/24 10:23:05;;;;;;;5.40;2.20;;;;;;;6.91;70.14;100508.40;116679;1201;23277;-66
2021/10/24 10:25:36;;;;;;;5.70;2.90;;;;;;;7.00;69.93;100508.85;116531;1201;137391;-66
2021/10/24 10:28:11;;;;;;;15.30;8.80;;;;;;;7.05;69.78;100503.29;116585;1201;22328;-66
2021/10/24 10:30:45;;;;;;;60.90;32.50;;;;;;;7.11;69.49;100515.66;116436;1201;137789;-66
2021/10/24 10:33:33;;;;;;;9.70;5.70;;;;;;;7.15;68.50;100516.61;116551;1202;22317;-66
2021/10/24 10:36:03;;;;;;;27.60;13.50;;;;;;;7.17;67.34;100511.36;116597;1201;22314;-66
2021/10/24 10:38:41;;;;;;;18.10;7.80;;;;;;;7.20;66.54;100514.94;116450;1196;137119;-66
2021/10/24 10:41:13;;;;;;;5.90;3.20;;;;;;;7.22;66.08;100516.52;116607;1202;22230;-65
2021/10/24 10:44:06;;;;;;;6.10;2.90;;;;;;;7.23;66.19;100517.85;116457;1200;137626;-65
2021/10/24 10:46:35;;;;;;;10.00;5.90;;;;;;;7.25;65.96;100512.21;116571;1201;22357;-64
2021/10/24 10:49:21;;;;;;;9.10;4.30;;;;;;;7.28;65.51;100510.84;116367;1202;137225;-64
2021/10/24 10:51:49;;;;;;;8.10;6.00;;;;;;;7.29;65.28;100513.50;116560;1202;22245;-65
2021/10/24 10:54:17;;;;;;;8.00;3.70;;;;;;;7.32;65.40;100512.50;116482;1202;136757;-64
2021/10/24 10:56:53;;;;;;;14.40;6.50;;;;;;;7.36;63.57;100515.73;116716;1201;22389;-65
2021/10/24 10:59:29;;;;;;;4.70;2.10;;;;;;;7.36;62.35;100506.80;116656;1201;22430;-66
2021/10/24 11:02:28;;;;;;;3.60;2.50;;;;;;;7.39;61.62;100507.29;116466;1201;136862;-68
2021/10/24 11:04:58;;;;;;;7.00;3.20;;;;;;;7.42;61.97;100505.33;116600;1202;22370;-67
2021/10/24 11:07:43;;;;;;;11.00;6.00;;;;;;;7.47;61.40;100513.34;116538;1201;136827;-67
2021/10/24 11:10:16;;;;;;;5.60;3.30;;;;;;;7.52;60.82;100512.55;116675;1201;22253;-67
2021/10/24 11:12:46;;;;;;;9.90;5.20;;;;;;;7.54;60.24;100517.13;116633;1201;136818;-67
2021/10/24 11:15:16;;;;;;;6.20;3.10;;;;;;;7.48;59.89;100525.67;116690;1193;22250;-67
2021/10/24 11:17:47;;;;;;;4.30;1.70;;;;;;;7.43;59.70;100531.43;116663;1201;23606;-66
2021/10/24 11:20:21;;;;;;;3.40;1.60;;;;;;;7.35;57.56;100531.45;116591;1201;136618;-68
2021/10/24 11:23:01;;;;;;;9.40;5.40;;;;;;;7.27;55.87;100538.89;116580;1201;22411;-68
2021/10/24 11:25:47;;;;;;;9.40;6.10;;;;;;;7.18;56.12;100541.80;116527;1201;136646;-68
2021/10/24 11:28:20;;;;;;;5.00;3.10;;;;;;;7.12;56.15;100543.92;116629;1201;23102;-67
2021/10/24 11:31:01;;;;;;;4.50;2.80;;;;;;;7.10;56.51;100547.59;116520;1202;137494;-67
2021/10/24 11:33:45;;;;;;;2.80;1.70;;;;;;;7.10;56.73;100551.17;116618;1201;22449;-68
2021/10/24 11:36:18;;;;;;;7.50;3.20;;;;;;;7.10;56.63;100562.23;116665;1201;22446;-67
2021/10/24 11:38:46;;;;;;;4.80;2.30;;;;;;;7.12;56.85;100565.61;116571;1201;136890;-68
2021/10/24 11:41:20;;;;;;;6.20;2.20;;;;;;;7.13;56.65;100565.81;116666;1201;22308;-67
2021/10/24 11:43:51;;;;;;;3.30;2.30;;;;;;;7.13;56.95;100564.40;116540;1201;137136;-68